TimeEST,TemperatureF,Dew PointF,Humidity,Sea Level PressureIn,VisibilityMPH,Wind Direction,Wind SpeedMPH,Gust SpeedMPH,PrecipitationIn,Events,Conditions,WindDirDegrees,DateUTC
12:01 AM,33.8,30.2,87,29.44,2.0,NNE,3.5,-,0.00,Snow,Light Snow,20,2013-02-27 05:01:00
12:38 AM,33.8,32.0,93,29.44,1.5,Calm,Calm,-,0.01,Snow,Light Snow,0,2013-02-27 05:38:00
12:45 AM,33.8,30.2,87,29.44,1.2,North,3.5,-,0.01,Snow,Light Snow,10,2013-02-27 05:45:00
12:53 AM,33.1,30.9,92,29.46,1.0,Calm,Calm,-,0.02,Snow,Light Snow,0,2013-02-27 05:53:00
1:09 AM,33.8,32.0,93,29.44,1.2,NNW,3.5,-,0.00,Snow,Light Snow,340,2013-02-27 06:09:00
1:53 AM,33.1,32.0,96,29.47,1.2,Calm,Calm,-,0.01,Snow,Light Snow,0,2013-02-27 06:53:00
2:24 AM,33.8,32.0,93,29.45,0.8,Calm,Calm,-,0.01,Snow,Light Snow,0,2013-02-27 07:24:00
2:46 AM,33.8,30.2,87,29.45,0.8,Calm,Calm,-,0.02,Snow,Light Snow,0,2013-02-27 07:46:00
2:53 AM,33.1,30.9,92,29.47,0.8,West,3.5,-,0.02,Snow,Light Snow,270,2013-02-27 07:53:00
3:04 AM,33.8,30.2,87,29.45,0.8,West,3.5,-,0.00,Snow,Light Snow,270,2013-02-27 08:04:00
3:13 AM,33.8,32.0,93,29.45,1.2,Calm,Calm,-,0.00,,Overcast,0,2013-02-27 08:13:00
3:53 AM,33.1,30.9,92,29.47,1.0,Calm,Calm,-,0.00,Snow,Light Snow,0,2013-02-27 08:53:00
4:34 AM,33.8,30.2,87,29.45,1.5,SW,3.5,-,0.00,,Mist,230,2013-02-27 09:34:00
4:53 AM,33.1,30.9,92,29.47,1.5,Calm,Calm,-,0.00,,Overcast,0,2013-02-27 09:53:00
5:53 AM,33.1,30.9,92,29.48,2.0,WSW,5.8,-,N/A,,Overcast,240,2013-02-27 10:53:00
6:53 AM,33.1,30.9,92,29.50,1.2,SW,8.1,-,0.00,Snow,Light Snow,220,2013-02-27 11:53:00
7:53 AM,33.1,30.9,92,29.52,1.2,WSW,8.1,-,0.01,Snow,Light Snow,240,2013-02-27 12:53:00
8:07 AM,33.8,30.2,87,29.50,2.5,SW,8.1,-,0.00,,Overcast,230,2013-02-27 13:07:00
8:10 AM,33.8,30.2,87,29.50,3.0,SW,6.9,-,0.00,,Overcast,230,2013-02-27 13:10:00
8:53 AM,33.1,30.9,92,29.53,3.0,SW,9.2,-,0.00,,Overcast,220,2013-02-27 13:53:00
9:29 AM,33.8,30.2,87,29.52,2.0,SW,10.4,-,0.00,Snow,Light Snow,220,2013-02-27 14:29:00
9:38 AM,33.8,30.2,87,29.52,1.2,SW,11.5,-,0.00,Snow,Light Snow,230,2013-02-27 14:38:00
10:00 AM,33.8,30.2,87,29.53,0.5,SW,10.4,-,0.01,Fog-Snow,Snow,230,2013-02-27 15:00:00
10:15 AM,33.8,30.2,87,29.53,0.8,SW,10.4,-,0.01,Snow,Light Snow,220,2013-02-27 15:15:00
10:24 AM,33.8,30.2,87,29.53,0.5,SW,10.4,-,0.01,Fog-Snow,Snow,220,2013-02-27 15:24:00
10:32 AM,33.8,30.2,87,29.53,1.0,SW,10.4,-,0.01,Snow,Light Snow,220,2013-02-27 15:32:00
10:53 AM,34.0,30.9,89,29.55,1.0,SW,11.5,-,0.01,Snow,Light Snow,220,2013-02-27 15:53:00
11:53 AM,34.0,30.9,89,29.56,2.0,SW,12.7,-,0.00,Snow,Light Snow,220,2013-02-27 16:53:00
12:11 PM,33.8,30.2,87,29.53,3.0,SW,11.5,-,0.00,Snow,Light Snow,220,2013-02-27 17:11:00
12:53 PM,34.0,30.9,89,29.55,6.0,SW,10.4,-,0.00,,Overcast,220,2013-02-27 17:53:00
1:53 PM,34.0,30.9,89,29.55,2.5,SW,11.5,-,0.00,Snow,Light Snow,220,2013-02-27 18:53:00
2:39 PM,33.8,30.2,87,29.53,1.5,SW,11.5,-,0.01,Snow,Light Snow,220,2013-02-27 19:39:00
2:53 PM,34.0,30.9,89,29.56,1.0,SW,12.7,-,0.01,Snow,Light Snow,220,2013-02-27 19:53:00
3:53 PM,34.0,30.9,89,29.56,1.0,SW,10.4,-,0.00,Snow,Light Snow,220,2013-02-27 20:53:00
4:06 PM,33.8,30.2,87,29.54,0.8,SW,11.5,-,0.01,Snow,Light Snow,220,2013-02-27 21:06:00
4:53 PM,34.0,30.9,89,29.58,0.8,SW,11.5,-,0.02,Snow,Light Snow,230,2013-02-27 21:53:00
5:14 PM,33.8,30.2,87,29.56,1.0,SW,10.4,-,0.00,Snow,Light Snow,230,2013-02-27 22:14:00
5:53 PM,34.0,30.9,89,29.59,1.5,SW,10.4,-,0.00,Snow,Light Snow,230,2013-02-27 22:53:00
6:10 PM,33.8,30.2,87,29.57,2.0,WSW,10.4,-,0.00,Snow,Light Snow,240,2013-02-27 23:10:00
6:25 PM,33.8,30.2,87,29.57,1.2,SW,9.2,-,0.00,Snow,Light Snow,230,2013-02-27 23:25:00
6:34 PM,33.8,30.2,87,29.58,0.8,WSW,9.2,-,0.01,Snow,Light Snow,240,2013-02-27 23:34:00
6:45 PM,33.8,30.2,87,29.58,1.2,SW,9.2,-,0.01,Snow,Light Snow,230,2013-02-27 23:45:00
6:53 PM,33.1,30.9,92,29.60,1.0,SW,11.5,-,0.01,Snow,Light Snow,230,2013-02-27 23:53:00
7:53 PM,33.1,30.0,89,29.61,1.5,SW,10.4,-,0.01,Snow,Light Snow,230,2013-02-28 00:53:00
8:04 PM,33.8,30.2,87,29.58,2.5,SW,12.7,-,0.00,Snow,Light Snow,230,2013-02-28 01:04:00
8:11 PM,33.8,30.2,87,29.58,3.0,SW,12.7,-,0.00,Snow,Light Snow,230,2013-02-28 01:11:00
9:29 PM,33.8,30.2,87,29.59,2.5,WSW,11.5,-,0.00,Snow,Light Snow,240,2013-02-28 02:29:00
9:43 PM,32.0,30.2,93,29.59,1.8,WSW,10.4,-,0.00,Snow,Light Snow,240,2013-02-28 02:43:00
9:50 PM,33.8,30.2,87,29.59,2.5,WSW,9.2,-,0.00,Snow,Light Snow,240,2013-02-28 02:50:00
9:53 PM,33.1,30.0,89,29.62,2.5,WSW,11.5,-,0.00,Snow,Light Snow,240,2013-02-28 02:53:00
10:02 PM,33.8,30.2,87,29.59,3.0,WSW,10.4,-,0.00,Snow,Light Snow,240,2013-02-28 03:02:00
10:53 PM,33.1,30.0,89,29.62,3.0,WSW,8.1,-,0.00,,Overcast,250,2013-02-28 03:53:00
11:07 PM,33.8,30.2,87,29.59,2.5,WSW,8.1,-,0.00,Snow,Light Snow,250,2013-02-28 04:07:00
11:53 PM,33.1,30.9,92,29.60,2.5,West,10.4,-,0.00,,Overcast,260,2013-02-28 04:53:00